sensor_id;sensor_type;location;lat;lon;timestamp;P1;durP1;ratioP1;P2;durP2;ratioP2
69188;SDS011;56302;52.322;5.926;2023-04-03T00:01:31;3.20;;;1.52;;
69188;SDS011;56302;52.322;5.926;2023-04-03T00:03:56;3.37;;;1.40;;
69188;SDS011;56302;52.322;5.926;2023-04-03T00:06:22;5.23;;;1.63;;
69188;SDS011;56302;52.322;5.926;2023-04-03T00:08:49;4.07;;;1.50;;
69188;SDS011;56302;52.322;5.926;2023-04-03T00:11:15;5.05;;;1.40;;
69188;SDS011;56302;52.322;5.926;2023-04-03T00:13:41;4.55;;;1.50;;
69188;SDS011;56302;52.322;5.926;2023-04-03T00:16:07;3.70;;;1.40;;
69188;SDS011;56302;52.322;5.926;2023-04-03T00:18:34;6.10;;;1.58;;
69188;SDS011;56302;52.322;5.926;2023-04-03T00:21:00;4.55;;;1.42;;
69188;SDS011;56302;52.322;5.926;2023-04-03T00:23:26;5.60;;;1.80;;
69188;SDS011;56302;52.322;5.926;2023-04-03T00:25:52;5.13;;;1.70;;
69188;SDS011;56302;52.322;5.926;2023-04-03T00:28:17;3.53;;;1.50;;
69188;SDS011;56302;52.322;5.926;2023-04-03T00:30:43;3.53;;;1.13;;
69188;SDS011;56302;52.322;5.926;2023-04-03T00:33:10;5.97;;;1.53;;
69188;SDS011;56302;52.322;5.926;2023-04-03T00:35:38;3.40;;;1.40;;
69188;SDS011;56302;52.322;5.926;2023-04-03T00:38:03;4.30;;;1.48;;
69188;SDS011;56302;52.322;5.926;2023-04-03T00:40:32;6.63;;;1.70;;
69188;SDS011;56302;52.322;5.926;2023-04-03T00:42:59;4.55;;;1.38;;
69188;SDS011;56302;52.322;5.926;2023-04-03T00:48:01;5.75;;;1.70;;
69188;SDS011;56302;52.322;5.926;2023-04-03T00:50:30;5.32;;;1.40;;
69188;SDS011;56302;52.322;5.926;2023-04-03T00:52:58;3.97;;;1.50;;
69188;SDS011;56302;52.322;5.926;2023-04-03T00:55:25;5.40;;;1.40;;
69188;SDS011;56302;52.322;5.926;2023-04-03T00:57:51;5.68;;;1.60;;
69188;SDS011;56302;52.322;5.926;2023-04-03T01:00:18;5.05;;;1.70;;
69188;SDS011;56302;52.322;5.926;2023-04-03T01:02:45;6.10;;;1.40;;
69188;SDS011;56302;52.322;5.926;2023-04-03T01:05:11;3.20;;;1.45;;
69188;SDS011;56302;52.322;5.926;2023-04-03T01:07:37;4.13;;;1.52;;
69188;SDS011;56302;52.322;5.926;2023-04-03T01:10:08;4.93;;;1.70;;
69188;SDS011;56302;52.322;5.926;2023-04-03T01:12:39;6.53;;;1.75;;
69188;SDS011;56302;52.322;5.926;2023-04-03T01:15:10;4.10;;;1.60;;
69188;SDS011;56302;52.322;5.926;2023-04-03T01:17:42;4.55;;;1.60;;
69188;SDS011;56302;52.322;5.926;2023-04-03T01:28:06;5.07;;;1.98;;
69188;SDS011;56302;52.322;5.926;2023-04-03T01:30:35;3.88;;;1.40;;
69188;SDS011;56302;52.322;5.926;2023-04-03T01:33:06;6.55;;;1.70;;
69188;SDS011;56302;52.322;5.926;2023-04-03T01:35:31;5.33;;;1.50;;
69188;SDS011;56302;52.322;5.926;2023-04-03T01:37:57;3.10;;;1.40;;
69188;SDS011;56302;52.322;5.926;2023-04-03T01:40:22;3.22;;;1.35;;
69188;SDS011;56302;52.322;5.926;2023-04-03T01:42:48;4.90;;;1.70;;
69188;SDS011;56302;52.322;5.926;2023-04-03T01:45:13;6.63;;;1.83;;
69188;SDS011;56302;52.322;5.926;2023-04-03T01:47:39;5.38;;;1.90;;
69188;SDS011;56302;52.322;5.926;2023-04-03T01:50:05;6.47;;;1.70;;
69188;SDS011;56302;52.322;5.926;2023-04-03T01:52:30;5.15;;;1.77;;
69188;SDS011;56302;52.322;5.926;2023-04-03T01:54:56;5.63;;;1.60;;
69188;SDS011;56302;52.322;5.926;2023-04-03T01:57:21;4.60;;;1.67;;
69188;SDS011;56302;52.322;5.926;2023-04-03T01:59:47;6.63;;;1.75;;
69188;SDS011;56302;52.322;5.926;2023-04-03T02:02:13;5.03;;;1.60;;
69188;SDS011;56302;52.322;5.926;2023-04-03T02:04:39;4.90;;;1.65;;
69188;SDS011;56302;52.322;5.926;2023-04-03T02:07:05;4.90;;;1.60;;
69188;SDS011;56302;52.322;5.926;2023-04-03T02:09:31;5.40;;;1.70;;
69188;SDS011;56302;52.322;5.926;2023-04-03T02:11:56;5.43;;;1.83;;
69188;SDS011;56302;52.322;5.926;2023-04-03T02:14:22;6.72;;;1.80;;
69188;SDS011;56302;52.322;5.926;2023-04-03T02:16:48;4.68;;;1.70;;
69188;SDS011;56302;52.322;5.926;2023-04-03T02:19:14;7.53;;;1.80;;
69188;SDS011;56302;52.322;5.926;2023-04-03T02:21:40;5.45;;;1.85;;
69188;SDS011;56302;52.322;5.926;2023-04-03T02:24:06;6.37;;;1.70;;
69188;SDS011;56302;52.322;5.926;2023-04-03T02:26:31;6.20;;;1.75;;
69188;SDS011;56302;52.322;5.926;2023-04-03T02:28:57;8.53;;;2.20;;
69188;SDS011;56302;52.322;5.926;2023-04-03T02:31:22;6.03;;;1.77;;
69188;SDS011;56302;52.322;5.926;2023-04-03T02:33:48;6.38;;;1.70;;
69188;SDS011;56302;52.322;5.926;2023-04-03T02:36:15;6.68;;;1.80;;
69188;SDS011;56302;52.322;5.926;2023-04-03T02:38:40;7.90;;;2.00;;
69188;SDS011;56302;52.322;5.926;2023-04-03T02:41:07;7.03;;;2.42;;
69188;SDS011;56302;52.322;5.926;2023-04-03T02:43:34;5.50;;;2.13;;
69188;SDS011;56302;52.322;5.926;2023-04-03T02:46:00;5.68;;;1.90;;
69188;SDS011;56302;52.322;5.926;2023-04-03T02:48:26;7.33;;;2.10;;
69188;SDS011;56302;52.322;5.926;2023-04-03T02:50:52;7.45;;;2.08;;
69188;SDS011;56302;52.322;5.926;2023-04-03T02:53:18;8.55;;;2.22;;
69188;SDS011;56302;52.322;5.926;2023-04-03T02:55:44;7.33;;;2.23;;
69188;SDS011;56302;52.322;5.926;2023-04-03T02:58:10;3.88;;;2.15;;
69188;SDS011;56302;52.322;5.926;2023-04-03T03:00:35;5.50;;;1.90;;
69188;SDS011;56302;52.322;5.926;2023-04-03T03:03:01;4.03;;;1.90;;
69188;SDS011;56302;52.322;5.926;2023-04-03T03:05:27;7.43;;;2.10;;
69188;SDS011;56302;52.322;5.926;2023-04-03T03:07:53;5.78;;;2.10;;
69188;SDS011;56302;52.322;5.926;2023-04-03T03:10:19;7.55;;;2.30;;
69188;SDS011;56302;52.322;5.926;2023-04-03T03:12:45;7.37;;;1.90;;
69188;SDS011;56302;52.322;5.926;2023-04-03T03:15:10;4.55;;;1.67;;
69188;SDS011;56302;52.322;5.926;2023-04-03T03:17:36;6.35;;;2.63;;
69188;SDS011;56302;52.322;5.926;2023-04-03T03:20:04;5.20;;;2.00;;
69188;SDS011;56302;52.322;5.926;2023-04-03T03:22:30;5.72;;;1.90;;
69188;SDS011;56302;52.322;5.926;2023-04-03T03:24:57;5.68;;;2.00;;
69188;SDS011;56302;52.322;5.926;2023-04-03T03:27:23;6.40;;;2.30;;
69188;SDS011;56302;52.322;5.926;2023-04-03T03:29:49;4.50;;;2.13;;
69188;SDS011;56302;52.322;5.926;2023-04-03T03:32:14;5.43;;;2.23;;
69188;SDS011;56302;52.322;5.926;2023-04-03T03:34:40;4.28;;;1.85;;
69188;SDS011;56302;52.322;5.926;2023-04-03T03:37:05;7.30;;;2.03;;
69188;SDS011;56302;52.322;5.926;2023-04-03T03:39:31;5.03;;;2.00;;
69188;SDS011;56302;52.322;5.926;2023-04-03T03:41:56;5.05;;;1.88;;
69188;SDS011;56302;52.322;5.926;2023-04-03T03:44:22;5.20;;;1.80;;
69188;SDS011;56302;52.322;5.926;2023-04-03T03:46:47;7.27;;;2.10;;
69188;SDS011;56302;52.322;5.926;2023-04-03T03:49:13;5.23;;;2.17;;
69188;SDS011;56302;52.322;5.926;2023-04-03T03:51:39;7.80;;;1.95;;
69188;SDS011;56302;52.322;5.926;2023-04-03T03:54:05;7.13;;;2.30;;
69188;SDS011;56302;52.322;5.926;2023-04-03T03:56:32;6.10;;;2.13;;
69188;SDS011;56302;52.322;5.926;2023-04-03T03:58:57;7.45;;;2.33;;
69188;SDS011;56302;52.322;5.926;2023-04-03T04:01:23;6.67;;;2.13;;
69188;SDS011;56302;52.322;5.926;2023-04-03T04:03:49;5.10;;;1.88;;
69188;SDS011;56302;52.322;5.926;2023-04-03T04:06:15;5.47;;;2.05;;
69188;SDS011;56302;52.322;5.926;2023-04-03T04:08:41;7.97;;;2.22;;
69188;SDS011;56302;52.322;5.926;2023-04-03T04:11:07;6.13;;;2.10;;
69188;SDS011;56302;52.322;5.926;2023-04-03T04:13:33;5.03;;;1.90;;
69188;SDS011;56302;52.322;5.926;2023-04-03T04:15:59;6.40;;;1.93;;
69188;SDS011;56302;52.322;5.926;2023-04-03T04:18:25;6.72;;;2.05;;
69188;SDS011;56302;52.322;5.926;2023-04-03T04:20:51;8.03;;;1.93;;
69188;SDS011;56302;52.322;5.926;2023-04-03T04:23:17;8.32;;;2.15;;
69188;SDS011;56302;52.322;5.926;2023-04-03T04:25:46;6.82;;;2.40;;
69188;SDS011;56302;52.322;5.926;2023-04-03T04:28:12;5.37;;;2.17;;
69188;SDS011;56302;52.322;5.926;2023-04-03T04:30:38;4.70;;;2.00;;
69188;SDS011;56302;52.322;5.926;2023-04-03T04:33:03;9.40;;;2.00;;
69188;SDS011;56302;52.322;5.926;2023-04-03T04:35:29;5.82;;;2.00;;
69188;SDS011;56302;52.322;5.926;2023-04-03T04:37:55;8.70;;;2.20;;
69188;SDS011;56302;52.322;5.926;2023-04-03T04:40:21;6.13;;;2.38;;
69188;SDS011;56302;52.322;5.926;2023-04-03T04:42:46;8.40;;;2.43;;
69188;SDS011;56302;52.322;5.926;2023-04-03T04:45:12;9.40;;;2.30;;
69188;SDS011;56302;52.322;5.926;2023-04-03T04:47:38;5.27;;;1.93;;
69188;SDS011;56302;52.322;5.926;2023-04-03T04:50:03;6.50;;;2.00;;
69188;SDS011;56302;52.322;5.926;2023-04-03T04:52:29;5.10;;;2.20;;
69188;SDS011;56302;52.322;5.926;2023-04-03T04:54:55;5.97;;;2.10;;
69188;SDS011;56302;52.322;5.926;2023-04-03T04:57:20;5.53;;;2.17;;
69188;SDS011;56302;52.322;5.926;2023-04-03T04:59:46;6.23;;;1.90;;
69188;SDS011;56302;52.322;5.926;2023-04-03T05:02:11;10.18;;;2.28;;
69188;SDS011;56302;52.322;5.926;2023-04-03T05:04:37;5.70;;;2.00;;
69188;SDS011;56302;52.322;5.926;2023-04-03T05:07:03;6.53;;;2.83;;
69188;SDS011;56302;52.322;5.926;2023-04-03T05:09:28;5.68;;;2.08;;
69188;SDS011;56302;52.322;5.926;2023-04-03T05:11:54;6.20;;;2.10;;
69188;SDS011;56302;52.322;5.926;2023-04-03T05:14:21;7.95;;;2.00;;
69188;SDS011;56302;52.322;5.926;2023-04-03T05:16:46;4.57;;;2.20;;
69188;SDS011;56302;52.322;5.926;2023-04-03T05:19:12;7.90;;;2.35;;
69188;SDS011;56302;52.322;5.926;2023-04-03T05:21:38;6.03;;;2.20;;
69188;SDS011;56302;52.322;5.926;2023-04-03T05:24:03;7.68;;;2.17;;
69188;SDS011;56302;52.322;5.926;2023-04-03T05:26:30;5.80;;;2.10;;
69188;SDS011;56302;52.322;5.926;2023-04-03T05:28:56;7.57;;;2.33;;
69188;SDS011;56302;52.322;5.926;2023-04-03T05:31:22;6.03;;;2.30;;
69188;SDS011;56302;52.322;5.926;2023-04-03T05:33:48;6.20;;;2.13;;
69188;SDS011;56302;52.322;5.926;2023-04-03T05:36:13;7.05;;;2.17;;
69188;SDS011;56302;52.322;5.926;2023-04-03T05:38:39;5.50;;;2.30;;
69188;SDS011;56302;52.322;5.926;2023-04-03T05:41:05;8.43;;;2.37;;
69188;SDS011;56302;52.322;5.926;2023-04-03T05:43:30;7.60;;;2.60;;
69188;SDS011;56302;52.322;5.926;2023-04-03T05:45:57;7.43;;;3.10;;
69188;SDS011;56302;52.322;5.926;2023-04-03T05:48:23;11.20;;;2.03;;
69188;SDS011;56302;52.322;5.926;2023-04-03T05:50:48;3.73;;;1.93;;
69188;SDS011;56302;52.322;5.926;2023-04-03T05:53:18;10.57;;;1.90;;
69188;SDS011;56302;52.322;5.926;2023-04-03T05:55:47;7.88;;;1.85;;
69188;SDS011;56302;52.322;5.926;2023-04-03T05:58:13;7.13;;;2.25;;
69188;SDS011;56302;52.322;5.926;2023-04-03T06:00:38;5.10;;;1.97;;
69188;SDS011;56302;52.322;5.926;2023-04-03T06:03:07;7.20;;;2.10;;
69188;SDS011;56302;52.322;5.926;2023-04-03T06:05:33;5.03;;;1.93;;
69188;SDS011;56302;52.322;5.926;2023-04-03T06:07:59;4.90;;;2.10;;
69188;SDS011;56302;52.322;5.926;2023-04-03T06:10:25;6.05;;;2.10;;
69188;SDS011;56302;52.322;5.926;2023-04-03T06:12:51;4.07;;;1.90;;
69188;SDS011;56302;52.322;5.926;2023-04-03T06:15:16;3.93;;;2.07;;
69188;SDS011;56302;52.322;5.926;2023-04-03T06:17:42;7.82;;;2.28;;
69188;SDS011;56302;52.322;5.926;2023-04-03T06:20:08;4.47;;;2.20;;
69188;SDS011;56302;52.322;5.926;2023-04-03T06:22:34;7.18;;;2.33;;
69188;SDS011;56302;52.322;5.926;2023-04-03T06:25:00;4.93;;;1.60;;
69188;SDS011;56302;52.322;5.926;2023-04-03T06:27:26;7.67;;;2.47;;
69188;SDS011;56302;52.322;5.926;2023-04-03T06:29:52;6.47;;;2.20;;
69188;SDS011;56302;52.322;5.926;2023-04-03T06:32:17;8.60;;;2.20;;
69188;SDS011;56302;52.322;5.926;2023-04-03T06:34:43;5.50;;;1.70;;
69188;SDS011;56302;52.322;5.926;2023-04-03T06:37:18;7.07;;;1.80;;
69188;SDS011;56302;52.322;5.926;2023-04-03T06:39:45;5.85;;;1.83;;
69188;SDS011;56302;52.322;5.926;2023-04-03T06:42:11;5.45;;;2.72;;
69188;SDS011;56302;52.322;5.926;2023-04-03T06:44:37;4.80;;;1.90;;
69188;SDS011;56302;52.322;5.926;2023-04-03T06:47:03;10.70;;;1.70;;
69188;SDS011;56302;52.322;5.926;2023-04-03T06:49:28;3.22;;;1.48;;
69188;SDS011;56302;52.322;5.926;2023-04-03T06:51:54;2.33;;;0.97;;
69188;SDS011;56302;52.322;5.926;2023-04-03T06:54:21;4.35;;;1.65;;
69188;SDS011;56302;52.322;5.926;2023-04-03T06:56:47;3.55;;;1.50;;
69188;SDS011;56302;52.322;5.926;2023-04-03T06:59:12;5.57;;;1.50;;
69188;SDS011;56302;52.322;5.926;2023-04-03T07:01:39;5.20;;;1.98;;
69188;SDS011;56302;52.322;5.926;2023-04-03T07:04:05;5.97;;;1.60;;
69188;SDS011;56302;52.322;5.926;2023-04-03T07:06:32;3.97;;;1.35;;
69188;SDS011;56302;52.322;5.926;2023-04-03T07:08:58;6.03;;;1.47;;
69188;SDS011;56302;52.322;5.926;2023-04-03T07:11:24;3.83;;;1.50;;
69188;SDS011;56302;52.322;5.926;2023-04-03T07:13:50;5.20;;;2.00;;
69188;SDS011;56302;52.322;5.926;2023-04-03T07:16:15;4.78;;;1.30;;
69188;SDS011;56302;52.322;5.926;2023-04-03T07:18:41;2.63;;;1.13;;
69188;SDS011;56302;52.322;5.926;2023-04-03T07:21:07;5.85;;;1.90;;
69188;SDS011;56302;52.322;5.926;2023-04-03T07:23:32;4.03;;;1.50;;
69188;SDS011;56302;52.322;5.926;2023-04-03T07:25:58;6.65;;;2.28;;
69188;SDS011;56302;52.322;5.926;2023-04-03T07:28:24;5.97;;;1.53;;
69188;SDS011;56302;52.322;5.926;2023-04-03T07:30:54;4.55;;;2.00;;
69188;SDS011;56302;52.322;5.926;2023-04-03T07:33:27;3.67;;;1.98;;
69188;SDS011;56302;52.322;5.926;2023-04-03T07:35:53;5.73;;;2.20;;
69188;SDS011;56302;52.322;5.926;2023-04-03T07:38:19;5.93;;;2.10;;
69188;SDS011;56302;52.322;5.926;2023-04-03T07:40:45;3.38;;;1.33;;
69188;SDS011;56302;52.322;5.926;2023-04-03T07:43:12;3.42;;;1.73;;
69188;SDS011;56302;52.322;5.926;2023-04-03T07:45:38;4.67;;;2.33;;
69188;SDS011;56302;52.322;5.926;2023-04-03T07:48:03;5.47;;;2.20;;
69188;SDS011;56302;52.322;5.926;2023-04-03T07:50:29;5.00;;;2.53;;
69188;SDS011;56302;52.322;5.926;2023-04-03T07:52:56;7.63;;;2.22;;
69188;SDS011;56302;52.322;5.926;2023-04-03T07:55:22;4.63;;;1.77;;
69188;SDS011;56302;52.322;5.926;2023-04-03T07:57:48;4.43;;;2.00;;
69188;SDS011;56302;52.322;5.926;2023-04-03T08:00:14;7.15;;;2.22;;
69188;SDS011;56302;52.322;5.926;2023-04-03T08:02:42;3.53;;;2.00;;
69188;SDS011;56302;52.322;5.926;2023-04-03T08:05:09;5.22;;;1.98;;
69188;SDS011;56302;52.322;5.926;2023-04-03T08:07:36;4.80;;;2.20;;
69188;SDS011;56302;52.322;5.926;2023-04-03T08:10:02;7.07;;;1.50;;
69188;SDS011;56302;52.322;5.926;2023-04-03T08:12:28;4.82;;;1.40;;
69188;SDS011;56302;52.322;5.926;2023-04-03T08:14:54;6.28;;;1.50;;
69188;SDS011;56302;52.322;5.926;2023-04-03T08:17:20;6.00;;;1.40;;
69188;SDS011;56302;52.322;5.926;2023-04-03T08:19:46;6.05;;;1.67;;
69188;SDS011;56302;52.322;5.926;2023-04-03T08:22:12;3.63;;;1.65;;
69188;SDS011;56302;52.322;5.926;2023-04-03T08:24:37;3.17;;;1.30;;
69188;SDS011;56302;52.322;5.926;2023-04-03T08:27:03;4.73;;;1.43;;
69188;SDS011;56302;52.322;5.926;2023-04-03T08:29:29;3.95;;;1.45;;
69188;SDS011;56302;52.322;5.926;2023-04-03T08:31:54;3.90;;;1.20;;
69188;SDS011;56302;52.322;5.926;2023-04-03T08:34:20;2.78;;;1.20;;
69188;SDS011;56302;52.322;5.926;2023-04-03T08:36:46;2.13;;;1.10;;
69188;SDS011;56302;52.322;5.926;2023-04-03T08:39:12;3.75;;;1.20;;
69188;SDS011;56302;52.322;5.926;2023-04-03T08:41:38;5.63;;;3.65;;
69188;SDS011;56302;52.322;5.926;2023-04-03T08:46:40;4.15;;;1.02;;
69188;SDS011;56302;52.322;5.926;2023-04-03T08:51:57;2.80;;;1.20;;
69188;SDS011;56302;52.322;5.926;2023-04-03T08:54:35;2.97;;;1.07;;
69188;SDS011;56302;52.322;5.926;2023-04-03T08:57:06;1.70;;;0.80;;
69188;SDS011;56302;52.322;5.926;2023-04-03T08:59:33;4.32;;;1.00;;
69188;SDS011;56302;52.322;5.926;2023-04-03T09:02:01;2.20;;;0.90;;
69188;SDS011;56302;52.322;5.926;2023-04-03T09:04:32;3.47;;;1.00;;
69188;SDS011;56302;52.322;5.926;2023-04-03T09:07:02;6.40;;;1.30;;
69188;SDS011;56302;52.322;5.926;2023-04-03T09:09:41;3.08;;;0.98;;
69188;SDS011;56302;52.322;5.926;2023-04-03T09:17:28;2.60;;;1.10;;
69188;SDS011;56302;52.322;5.926;2023-04-03T09:23:38;2.67;;;0.95;;
69188;SDS011;56302;52.322;5.926;2023-04-03T09:26:07;3.20;;;1.13;;
69188;SDS011;56302;52.322;5.926;2023-04-03T09:28:39;3.67;;;1.03;;
69188;SDS011;56302;52.322;5.926;2023-04-03T09:31:26;3.20;;;1.15;;
69188;SDS011;56302;52.322;5.926;2023-04-03T09:33:56;2.00;;;0.90;;
69188;SDS011;56302;52.322;5.926;2023-04-03T09:39:11;1.88;;;0.70;;
69188;SDS011;56302;52.322;5.926;2023-04-03T09:41:39;1.93;;;0.60;;
69188;SDS011;56302;52.322;5.926;2023-04-03T09:44:17;2.35;;;0.80;;
69188;SDS011;56302;52.322;5.926;2023-04-03T09:46:49;4.18;;;0.80;;
69188;SDS011;56302;52.322;5.926;2023-04-03T09:49:14;2.63;;;0.90;;
69188;SDS011;56302;52.322;5.926;2023-04-03T09:51:40;1.73;;;0.70;;
69188;SDS011;56302;52.322;5.926;2023-04-03T09:56:56;1.83;;;0.70;;
69188;SDS011;56302;52.322;5.926;2023-04-03T09:59:26;3.35;;;0.60;;
69188;SDS011;56302;52.322;5.926;2023-04-03T10:01:59;1.93;;;0.73;;
69188;SDS011;56302;52.322;5.926;2023-04-03T10:04:45;2.83;;;0.80;;
69188;SDS011;56302;52.322;5.926;2023-04-03T10:09:56;2.30;;;0.70;;
69188;SDS011;56302;52.322;5.926;2023-04-03T10:12:23;1.02;;;0.55;;
69188;SDS011;56302;52.322;5.926;2023-04-03T10:14:58;2.70;;;0.87;;
69188;SDS011;56302;52.322;5.926;2023-04-03T10:26:06;2.43;;;0.73;;
69188;SDS011;56302;52.322;5.926;2023-04-03T10:28:55;1.30;;;0.70;;
69188;SDS011;56302;52.322;5.926;2023-04-03T10:34:20;2.05;;;0.70;;
69188;SDS011;56302;52.322;5.926;2023-04-03T10:42:18;4.05;;;0.80;;
69188;SDS011;56302;52.322;5.926;2023-04-03T10:48:17;2.10;;;0.70;;
69188;SDS011;56302;52.322;5.926;2023-04-03T10:53:40;2.67;;;0.70;;
69188;SDS011;56302;52.322;5.926;2023-04-03T11:01:41;2.50;;;0.70;;
69188;SDS011;56302;52.322;5.926;2023-04-03T11:04:10;2.03;;;0.90;;
69188;SDS011;56302;52.322;5.926;2023-04-03T11:06:39;4.00;;;1.10;;
69188;SDS011;56302;52.322;5.926;2023-04-03T11:12:06;2.67;;;0.90;;
69188;SDS011;56302;52.322;5.926;2023-04-03T11:14:39;10.65;;;1.15;;
69188;SDS011;56302;52.322;5.926;2023-04-03T11:17:10;3.35;;;1.10;;
69188;SDS011;56302;52.322;5.926;2023-04-03T11:22:41;2.25;;;0.73;;
69188;SDS011;56302;52.322;5.926;2023-04-03T11:27:50;3.22;;;1.15;;
69188;SDS011;56302;52.322;5.926;2023-04-03T11:33:04;2.83;;;1.10;;
69188;SDS011;56302;52.322;5.926;2023-04-03T11:35:31;3.30;;;0.93;;
69188;SDS011;56302;52.322;5.926;2023-04-03T11:37:58;2.13;;;0.90;;
69188;SDS011;56302;52.322;5.926;2023-04-03T11:40:34;3.17;;;0.90;;
69188;SDS011;56302;52.322;5.926;2023-04-03T11:43:17;3.28;;;1.20;;
69188;SDS011;56302;52.322;5.926;2023-04-03T11:45:54;1.47;;;0.70;;
69188;SDS011;56302;52.322;5.926;2023-04-03T11:53:33;2.63;;;0.90;;
69188;SDS011;56302;52.322;5.926;2023-04-03T11:56:01;3.20;;;1.08;;
69188;SDS011;56302;52.322;5.926;2023-04-03T11:58:29;2.53;;;1.00;;
69188;SDS011;56302;52.322;5.926;2023-04-03T12:01:03;2.97;;;0.90;;
69188;SDS011;56302;52.322;5.926;2023-04-03T12:13:33;4.60;;;1.00;;
69188;SDS011;56302;52.322;5.926;2023-04-03T12:16:00;3.45;;;1.40;;
69188;SDS011;56302;52.322;5.926;2023-04-03T12:18:43;3.35;;;1.00;;
69188;SDS011;56302;52.322;5.926;2023-04-03T12:21:19;6.18;;;1.10;;
69188;SDS011;56302;52.322;5.926;2023-04-03T12:26:30;2.92;;;1.20;;
69188;SDS011;56302;52.322;5.926;2023-04-03T12:32:06;4.65;;;1.42;;
69188;SDS011;56302;52.322;5.926;2023-04-03T12:40:24;5.63;;;1.40;;
69188;SDS011;56302;52.322;5.926;2023-04-03T12:45:48;4.22;;;1.10;;
69188;SDS011;56302;52.322;5.926;2023-04-03T12:48:26;1.95;;;0.95;;
69188;SDS011;56302;52.322;5.926;2023-04-03T12:50:54;4.07;;;1.65;;
69188;SDS011;56302;52.322;5.926;2023-04-03T12:56:22;3.63;;;1.13;;
69188;SDS011;56302;52.322;5.926;2023-04-03T12:58:49;5.15;;;1.08;;
69188;SDS011;56302;52.322;5.926;2023-04-03T13:01:17;2.45;;;0.90;;
69188;SDS011;56302;52.322;5.926;2023-04-03T13:03:50;6.20;;;1.00;;
69188;SDS011;56302;52.322;5.926;2023-04-03T13:06:20;4.90;;;1.00;;
69188;SDS011;56302;52.322;5.926;2023-04-03T13:08:53;2.00;;;1.00;;
69188;SDS011;56302;52.322;5.926;2023-04-03T13:11:22;1.85;;;0.85;;
69188;SDS011;56302;52.322;5.926;2023-04-03T13:16:39;4.22;;;1.15;;
69188;SDS011;56302;52.322;5.926;2023-04-03T13:19:06;3.08;;;1.15;;
69188;SDS011;56302;52.322;5.926;2023-04-03T13:21:40;4.43;;;2.07;;
69188;SDS011;56302;52.322;5.926;2023-04-03T13:24:06;3.85;;;1.30;;
69188;SDS011;56302;52.322;5.926;2023-04-03T13:26:33;5.15;;;1.45;;
69188;SDS011;56302;52.322;5.926;2023-04-03T13:29:01;5.80;;;1.23;;
69188;SDS011;56302;52.322;5.926;2023-04-03T13:31:29;2.83;;;1.17;;
69188;SDS011;56302;52.322;5.926;2023-04-03T13:36:38;2.63;;;1.10;;
69188;SDS011;56302;52.322;5.926;2023-04-03T13:39:24;4.18;;;0.90;;
69188;SDS011;56302;52.322;5.926;2023-04-03T13:41:51;2.95;;;1.40;;
69188;SDS011;56302;52.322;5.926;2023-04-03T13:46:48;2.80;;;1.08;;
69188;SDS011;56302;52.322;5.926;2023-04-03T13:51:51;2.67;;;1.20;;
69188;SDS011;56302;52.322;5.926;2023-04-03T13:54:25;2.20;;;1.05;;
69188;SDS011;56302;52.322;5.926;2023-04-03T13:56:57;2.30;;;1.00;;
69188;SDS011;56302;52.322;5.926;2023-04-03T13:59:25;4.63;;;1.42;;
69188;SDS011;56302;52.322;5.926;2023-04-03T14:04:51;3.70;;;1.30;;
69188;SDS011;56302;52.322;5.926;2023-04-03T14:07:14;3.30;;;1.30;;
69188;SDS011;56302;52.322;5.926;2023-04-03T14:09:42;3.33;;;1.23;;
69188;SDS011;56302;52.322;5.926;2023-04-03T14:12:11;2.97;;;1.45;;
69188;SDS011;56302;52.322;5.926;2023-04-03T14:14:43;2.67;;;1.20;;
69188;SDS011;56302;52.322;5.926;2023-04-03T14:17:14;3.58;;;1.20;;
69188;SDS011;56302;52.322;5.926;2023-04-03T14:19:41;4.35;;;1.20;;
69188;SDS011;56302;52.322;5.926;2023-04-03T14:22:15;2.87;;;1.10;;
69188;SDS011;56302;52.322;5.926;2023-04-03T14:24:41;2.45;;;1.08;;
69188;SDS011;56302;52.322;5.926;2023-04-03T14:27:15;4.18;;;1.83;;
69188;SDS011;56302;52.322;5.926;2023-04-03T14:29:46;3.50;;;1.33;;
69188;SDS011;56302;52.322;5.926;2023-04-03T14:32:14;2.35;;;1.02;;
69188;SDS011;56302;52.322;5.926;2023-04-03T14:34:41;6.63;;;1.42;;
69188;SDS011;56302;52.322;5.926;2023-04-03T14:37:09;3.40;;;1.50;;
69188;SDS011;56302;52.322;5.926;2023-04-03T14:39:39;4.07;;;1.25;;
69188;SDS011;56302;52.322;5.926;2023-04-03T14:42:06;3.73;;;1.40;;
69188;SDS011;56302;52.322;5.926;2023-04-03T14:44:41;5.32;;;1.85;;
69188;SDS011;56302;52.322;5.926;2023-04-03T14:47:13;3.20;;;1.25;;
69188;SDS011;56302;52.322;5.926;2023-04-03T14:49:41;3.73;;;1.27;;
69188;SDS011;56302;52.322;5.926;2023-04-03T14:54:53;7.55;;;1.80;;
69188;SDS011;56302;52.322;5.926;2023-04-03T14:57:19;3.33;;;1.20;;
69188;SDS011;56302;52.322;5.926;2023-04-03T14:59:49;3.50;;;1.50;;
69188;SDS011;56302;52.322;5.926;2023-04-03T15:02:25;4.17;;;1.47;;
69188;SDS011;56302;52.322;5.926;2023-04-03T15:04:51;3.53;;;1.30;;
69188;SDS011;56302;52.322;5.926;2023-04-03T15:07:17;4.57;;;1.27;;
69188;SDS011;56302;52.322;5.926;2023-04-03T15:09:42;4.18;;;1.10;;
69188;SDS011;56302;52.322;5.926;2023-04-03T15:12:08;2.40;;;1.15;;
69188;SDS011;56302;52.322;5.926;2023-04-03T15:14:35;3.40;;;1.25;;
69188;SDS011;56302;52.322;5.926;2023-04-03T15:17:00;2.87;;;1.17;;
69188;SDS011;56302;52.322;5.926;2023-04-03T15:19:27;2.25;;;1.17;;
69188;SDS011;56302;52.322;5.926;2023-04-03T15:21:52;4.45;;;1.60;;
69188;SDS011;56302;52.322;5.926;2023-04-03T15:24:18;4.82;;;1.58;;
69188;SDS011;56302;52.322;5.926;2023-04-03T15:26:43;6.53;;;1.87;;
69188;SDS011;56302;52.322;5.926;2023-04-03T15:29:09;3.78;;;1.45;;
69188;SDS011;56302;52.322;5.926;2023-04-03T15:31:35;3.87;;;1.40;;
69188;SDS011;56302;52.322;5.926;2023-04-03T15:34:00;5.43;;;1.58;;
69188;SDS011;56302;52.322;5.926;2023-04-03T15:36:27;4.30;;;1.27;;
69188;SDS011;56302;52.322;5.926;2023-04-03T15:38:53;4.75;;;1.67;;
69188;SDS011;56302;52.322;5.926;2023-04-03T15:41:18;3.17;;;1.50;;
69188;SDS011;56302;52.322;5.926;2023-04-03T15:43:44;4.38;;;1.17;;
69188;SDS011;56302;52.322;5.926;2023-04-03T15:46:11;2.73;;;1.03;;
69188;SDS011;56302;52.322;5.926;2023-04-03T15:48:37;3.53;;;1.08;;
69188;SDS011;56302;52.322;5.926;2023-04-03T15:51:03;3.88;;;1.90;;
69188;SDS011;56302;52.322;5.926;2023-04-03T15:53:31;4.17;;;1.70;;
69188;SDS011;56302;52.322;5.926;2023-04-03T15:55:56;5.90;;;2.17;;
69188;SDS011;56302;52.322;5.926;2023-04-03T15:58:22;3.80;;;1.73;;
69188;SDS011;56302;52.322;5.926;2023-04-03T16:00:47;6.07;;;2.27;;
69188;SDS011;56302;52.322;5.926;2023-04-03T16:03:16;4.35;;;2.30;;
69188;SDS011;56302;52.322;5.926;2023-04-03T16:05:44;5.97;;;1.87;;
69188;SDS011;56302;52.322;5.926;2023-04-03T16:08:10;4.40;;;1.88;;
69188;SDS011;56302;52.322;5.926;2023-04-03T16:10:36;6.03;;;1.67;;
69188;SDS011;56302;52.322;5.926;2023-04-03T16:13:03;3.33;;;1.42;;
69188;SDS011;56302;52.322;5.926;2023-04-03T16:15:29;4.80;;;1.60;;
69188;SDS011;56302;52.322;5.926;2023-04-03T16:17:55;6.20;;;1.40;;
69188;SDS011;56302;52.322;5.926;2023-04-03T16:20:23;3.83;;;1.40;;
69188;SDS011;56302;52.322;5.926;2023-04-03T16:22:49;4.15;;;1.60;;
69188;SDS011;56302;52.322;5.926;2023-04-03T16:25:15;3.63;;;1.73;;
69188;SDS011;56302;52.322;5.926;2023-04-03T16:27:41;8.32;;;3.13;;
69188;SDS011;56302;52.322;5.926;2023-04-03T16:30:07;2.67;;;1.30;;
69188;SDS011;56302;52.322;5.926;2023-04-03T16:32:35;3.70;;;1.00;;
69188;SDS011;56302;52.322;5.926;2023-04-03T16:35:01;2.25;;;1.25;;
69188;SDS011;56302;52.322;5.926;2023-04-03T16:37:27;3.88;;;1.65;;
69188;SDS011;56302;52.322;5.926;2023-04-03T16:39:53;3.60;;;1.50;;
69188;SDS011;56302;52.322;5.926;2023-04-03T16:42:19;4.97;;;1.48;;
69188;SDS011;56302;52.322;5.926;2023-04-03T16:44:44;6.50;;;1.50;;
69188;SDS011;56302;52.322;5.926;2023-04-03T16:47:10;6.10;;;1.47;;
69188;SDS011;56302;52.322;5.926;2023-04-03T16:49:37;5.25;;;1.90;;
69188;SDS011;56302;52.322;5.926;2023-04-03T16:52:04;3.67;;;1.48;;